sensor_id;sensor_type;location;lat;lon;timestamp;temperature;humidity
9810;DHT22;4944;52.514;13.192;2022-09-02T00:00:51;17.40;99.90
9810;DHT22;4944;52.514;13.192;2022-09-02T00:03:19;17.40;99.90
9810;DHT22;4944;52.514;13.192;2022-09-02T00:05:46;17.30;99.90
9810;DHT22;4944;52.514;13.192;2022-09-02T00:08:12;17.30;99.90
9810;DHT22;4944;52.514;13.192;2022-09-02T00:10:41;17.30;99.90
9810;DHT22;4944;52.514;13.192;2022-09-02T00:13:10;17.20;99.90
9810;DHT22;4944;52.514;13.192;2022-09-02T00:15:38;17.20;99.90
9810;DHT22;4944;52.514;13.192;2022-09-02T00:18:05;17.20;99.90
9810;DHT22;4944;52.514;13.192;2022-09-02T00:20:33;17.20;99.90
9810;DHT22;4944;52.514;13.192;2022-09-02T00:23:00;17.20;99.90
9810;DHT22;4944;52.514;13.192;2022-09-02T00:25:27;17.20;99.90
9810;DHT22;4944;52.514;13.192;2022-09-02T00:27:53;17.20;99.90
9810;DHT22;4944;52.514;13.192;2022-09-02T00:30:20;17.20;99.90
9810;DHT22;4944;52.514;13.192;2022-09-02T00:32:48;17.20;99.90
9810;DHT22;4944;52.514;13.192;2022-09-02T00:35:15;17.20;99.90
9810;DHT22;4944;52.514;13.192;2022-09-02T00:37:42;17.10;99.90
9810;DHT22;4944;52.514;13.192;2022-09-02T00:40:10;17.10;99.90
9810;DHT22;4944;52.514;13.192;2022-09-02T00:42:37;17.10;99.90
9810;DHT22;4944;52.514;13.192;2022-09-02T00:45:06;17.10;99.90
9810;DHT22;4944;52.514;13.192;2022-09-02T00:47:33;17.10;99.90
9810;DHT22;4944;52.514;13.192;2022-09-02T00:50:05;17.10;99.90
9810;DHT22;4944;52.514;13.192;2022-09-02T00:52:35;17.00;99.90
9810;DHT22;4944;52.514;13.192;2022-09-02T00:55:06;17.00;99.90
9810;DHT22;4944;52.514;13.192;2022-09-02T00:57:38;17.00;99.90
9810;DHT22;4944;52.514;13.192;2022-09-02T01:00:10;16.90;99.90
9810;DHT22;4944;52.514;13.192;2022-09-02T01:02:39;16.90;99.90
9810;DHT22;4944;52.514;13.192;2022-09-02T01:05:10;16.90;99.90
9810;DHT22;4944;52.514;13.192;2022-09-02T01:07:39;16.90;99.90
9810;DHT22;4944;52.514;13.192;2022-09-02T01:10:11;16.90;99.90
9810;DHT22;4944;52.514;13.192;2022-09-02T01:12:38;16.90;99.90
9810;DHT22;4944;52.514;13.192;2022-09-02T01:15:07;16.90;99.90
9810;DHT22;4944;52.514;13.192;2022-09-02T01:17:35;16.80;99.90
9810;DHT22;4944;52.514;13.192;2022-09-02T01:20:07;16.80;99.90
9810;DHT22;4944;52.514;13.192;2022-09-02T01:22:38;16.90;99.90
9810;DHT22;4944;52.514;13.192;2022-09-02T01:25:09;16.90;99.90
9810;DHT22;4944;52.514;13.192;2022-09-02T01:27:37;16.90;99.90
9810;DHT22;4944;52.514;13.192;2022-09-02T01:30:06;16.90;99.90
9810;DHT22;4944;52.514;13.192;2022-09-02T01:32:33;16.90;99.90
9810;DHT22;4944;52.514;13.192;2022-09-02T01:35:00;16.90;99.90
9810;DHT22;4944;52.514;13.192;2022-09-02T01:37:27;16.90;99.90
9810;DHT22;4944;52.514;13.192;2022-09-02T01:39:55;16.90;99.90
9810;DHT22;4944;52.514;13.192;2022-09-02T01:42:22;16.90;99.90
9810;DHT22;4944;52.514;13.192;2022-09-02T01:44:49;16.90;99.90
9810;DHT22;4944;52.514;13.192;2022-09-02T01:47:20;16.90;99.90
9810;DHT22;4944;52.514;13.192;2022-09-02T01:49:47;16.80;99.90
9810;DHT22;4944;52.514;13.192;2022-09-02T01:52:15;16.80;99.90
9810;DHT22;4944;52.514;13.192;2022-09-02T01:54:42;16.90;99.90
9810;DHT22;4944;52.514;13.192;2022-09-02T01:57:11;16.90;99.90
9810;DHT22;4944;52.514;13.192;2022-09-02T01:59:38;16.90;99.90
9810;DHT22;4944;52.514;13.192;2022-09-02T02:02:05;16.90;99.90
9810;DHT22;4944;52.514;13.192;2022-09-02T02:04:32;16.90;99.90
9810;DHT22;4944;52.514;13.192;2022-09-02T02:06:59;16.90;99.90
9810;DHT22;4944;52.514;13.192;2022-09-02T02:09:26;16.90;99.90
9810;DHT22;4944;52.514;13.192;2022-09-02T02:11:53;16.80;99.90
9810;DHT22;4944;52.514;13.192;2022-09-02T02:14:21;16.80;99.90
9810;DHT22;4944;52.514;13.192;2022-09-02T02:16:49;16.80;99.90
9810;DHT22;4944;52.514;13.192;2022-09-02T02:19:16;16.80;99.90
9810;DHT22;4944;52.514;13.192;2022-09-02T02:21:42;16.70;99.90
9810;DHT22;4944;52.514;13.192;2022-09-02T02:24:09;16.70;99.90
9810;DHT22;4944;52.514;13.192;2022-09-02T02:26:36;16.70;99.90
9810;DHT22;4944;52.514;13.192;2022-09-02T02:29:03;16.70;99.90
9810;DHT22;4944;52.514;13.192;2022-09-02T02:31:31;16.70;99.90
9810;DHT22;4944;52.514;13.192;2022-09-02T02:33:58;16.60;99.90
9810;DHT22;4944;52.514;13.192;2022-09-02T02:36:26;16.60;99.90
9810;DHT22;4944;52.514;13.192;2022-09-02T02:38:53;16.60;99.90
9810;DHT22;4944;52.514;13.192;2022-09-02T02:41:20;16.60;99.90
9810;DHT22;4944;52.514;13.192;2022-09-02T02:43:47;16.50;99.90
9810;DHT22;4944;52.514;13.192;2022-09-02T02:46:15;16.50;99.90
9810;DHT22;4944;52.514;13.192;2022-09-02T02:48:43;16.50;99.90
9810;DHT22;4944;52.514;13.192;2022-09-02T02:51:10;16.50;99.90
9810;DHT22;4944;52.514;13.192;2022-09-02T02:53:37;16.50;99.90
9810;DHT22;4944;52.514;13.192;2022-09-02T02:56:05;16.40;99.90
9810;DHT22;4944;52.514;13.192;2022-09-02T02:58:33;16.40;99.90
9810;DHT22;4944;52.514;13.192;2022-09-02T03:01:00;16.40;99.90
9810;DHT22;4944;52.514;13.192;2022-09-02T03:03:27;16.30;99.90
9810;DHT22;4944;52.514;13.192;2022-09-02T03:05:55;16.30;99.90
9810;DHT22;4944;52.514;13.192;2022-09-02T03:08:22;16.30;99.90
9810;DHT22;4944;52.514;13.192;2022-09-02T03:10:52;16.30;99.90
9810;DHT22;4944;52.514;13.192;2022-09-02T03:13:20;16.30;99.90
9810;DHT22;4944;52.514;13.192;2022-09-02T03:15:48;16.30;99.90
9810;DHT22;4944;52.514;13.192;2022-09-02T03:18:15;16.30;99.90
9810;DHT22;4944;52.514;13.192;2022-09-02T03:20:43;16.30;99.90
9810;DHT22;4944;52.514;13.192;2022-09-02T03:23:12;16.20;99.90
9810;DHT22;4944;52.514;13.192;2022-09-02T03:25:41;16.20;99.90
9810;DHT22;4944;52.514;13.192;2022-09-02T03:28:08;16.30;99.90
9810;DHT22;4944;52.514;13.192;2022-09-02T03:30:35;16.20;99.90
9810;DHT22;4944;52.514;13.192;2022-09-02T03:33:03;16.20;99.90
9810;DHT22;4944;52.514;13.192;2022-09-02T03:35:31;16.10;99.90
9810;DHT22;4944;52.514;13.192;2022-09-02T03:37:59;16.10;99.90
9810;DHT22;4944;52.514;13.192;2022-09-02T03:40:28;16.10;99.90
9810;DHT22;4944;52.514;13.192;2022-09-02T03:42:55;16.10;99.90
9810;DHT22;4944;52.514;13.192;2022-09-02T03:45:23;16.10;99.90
9810;DHT22;4944;52.514;13.192;2022-09-02T03:47:50;16.00;99.90
9810;DHT22;4944;52.514;13.192;2022-09-02T03:50:20;16.00;99.90
9810;DHT22;4944;52.514;13.192;2022-09-02T03:52:47;16.00;99.90
9810;DHT22;4944;52.514;13.192;2022-09-02T03:55:15;16.00;99.90
9810;DHT22;4944;52.514;13.192;2022-09-02T03:57:44;16.00;99.90
9810;DHT22;4944;52.514;13.192;2022-09-02T04:00:14;15.90;99.90
9810;DHT22;4944;52.514;13.192;2022-09-02T04:02:41;15.90;99.90
9810;DHT22;4944;52.514;13.192;2022-09-02T04:05:09;15.90;99.90
9810;DHT22;4944;52.514;13.192;2022-09-02T04:07:36;15.90;99.90
9810;DHT22;4944;52.514;13.192;2022-09-02T04:10:04;15.80;99.90
9810;DHT22;4944;52.514;13.192;2022-09-02T04:12:33;15.70;99.90
9810;DHT22;4944;52.514;13.192;2022-09-02T04:15:01;15.70;99.90
9810;DHT22;4944;52.514;13.192;2022-09-02T04:17:28;15.70;99.90
9810;DHT22;4944;52.514;13.192;2022-09-02T04:19:55;15.70;99.90
9810;DHT22;4944;52.514;13.192;2022-09-02T04:22:21;15.70;99.90
9810;DHT22;4944;52.514;13.192;2022-09-02T04:24:48;15.60;99.90
9810;DHT22;4944;52.514;13.192;2022-09-02T04:27:15;15.60;99.90
9810;DHT22;4944;52.514;13.192;2022-09-02T04:29:42;15.60;99.90
9810;DHT22;4944;52.514;13.192;2022-09-02T04:32:10;15.60;99.90
9810;DHT22;4944;52.514;13.192;2022-09-02T04:34:37;15.50;99.90
9810;DHT22;4944;52.514;13.192;2022-09-02T04:37:03;15.50;99.90
9810;DHT22;4944;52.514;13.192;2022-09-02T04:39:33;15.50;99.90
9810;DHT22;4944;52.514;13.192;2022-09-02T04:42:00;15.60;99.90
9810;DHT22;4944;52.514;13.192;2022-09-02T04:44:27;15.50;99.90
9810;DHT22;4944;52.514;13.192;2022-09-02T04:46:54;15.50;99.90
9810;DHT22;4944;52.514;13.192;2022-09-02T04:49:22;15.60;99.90
9810;DHT22;4944;52.514;13.192;2022-09-02T04:51:49;15.50;99.90
9810;DHT22;4944;52.514;13.192;2022-09-02T04:54:18;15.60;99.90
9810;DHT22;4944;52.514;13.192;2022-09-02T04:56:45;15.50;99.90
9810;DHT22;4944;52.514;13.192;2022-09-02T04:59:11;15.50;99.90
9810;DHT22;4944;52.514;13.192;2022-09-02T05:01:38;15.60;99.90
9810;DHT22;4944;52.514;13.192;2022-09-02T05:04:07;15.60;99.90
9810;DHT22;4944;52.514;13.192;2022-09-02T05:06:36;15.60;99.90
9810;DHT22;4944;52.514;13.192;2022-09-02T05:09:04;15.60;99.90
9810;DHT22;4944;52.514;13.192;2022-09-02T05:11:33;15.60;99.90
9810;DHT22;4944;52.514;13.192;2022-09-02T05:14:03;15.60;99.90
9810;DHT22;4944;52.514;13.192;2022-09-02T05:16:33;15.60;99.90
9810;DHT22;4944;52.514;13.192;2022-09-02T05:19:03;15.60;99.90
9810;DHT22;4944;52.514;13.192;2022-09-02T05:21:30;15.70;99.90
9810;DHT22;4944;52.514;13.192;2022-09-02T05:23:58;15.80;99.90
9810;DHT22;4944;52.514;13.192;2022-09-02T05:26:25;15.70;99.90
9810;DHT22;4944;52.514;13.192;2022-09-02T05:28:52;15.80;99.90
9810;DHT22;4944;52.514;13.192;2022-09-02T05:31:19;15.80;99.90
9810;DHT22;4944;52.514;13.192;2022-09-02T05:33:47;15.80;99.90
9810;DHT22;4944;52.514;13.192;2022-09-02T05:36:17;15.90;99.90
9810;DHT22;4944;52.514;13.192;2022-09-02T05:38:45;15.90;99.90
9810;DHT22;4944;52.514;13.192;2022-09-02T05:41:15;15.90;99.90
9810;DHT22;4944;52.514;13.192;2022-09-02T05:43:44;15.90;99.90
9810;DHT22;4944;52.514;13.192;2022-09-02T05:46:15;15.90;99.90
9810;DHT22;4944;52.514;13.192;2022-09-02T05:48:43;16.00;99.90
9810;DHT22;4944;52.514;13.192;2022-09-02T05:51:31;16.00;99.90
9810;DHT22;4944;52.514;13.192;2022-09-02T05:53:59;16.10;99.90
9810;DHT22;4944;52.514;13.192;2022-09-02T05:56:28;16.10;99.90
9810;DHT22;4944;52.514;13.192;2022-09-02T05:58:55;16.10;99.90
9810;DHT22;4944;52.514;13.192;2022-09-02T06:01:23;16.10;99.90
9810;DHT22;4944;52.514;13.192;2022-09-02T06:03:50;16.20;99.90
9810;DHT22;4944;52.514;13.192;2022-09-02T06:06:18;16.20;99.90
9810;DHT22;4944;52.514;13.192;2022-09-02T06:08:48;16.20;99.90
9810;DHT22;4944;52.514;13.192;2022-09-02T06:11:16;16.30;99.90
9810;DHT22;4944;52.514;13.192;2022-09-02T06:13:45;16.20;99.90
9810;DHT22;4944;52.514;13.192;2022-09-02T06:16:14;16.20;99.90
9810;DHT22;4944;52.514;13.192;2022-09-02T06:18:41;16.30;99.90
9810;DHT22;4944;52.514;13.192;2022-09-02T06:21:08;16.30;99.90
9810;DHT22;4944;52.514;13.192;2022-09-02T06:23:37;16.40;99.90
9810;DHT22;4944;52.514;13.192;2022-09-02T06:26:09;16.40;99.90
9810;DHT22;4944;52.514;13.192;2022-09-02T06:28:36;16.40;99.90
9810;DHT22;4944;52.514;13.192;2022-09-02T06:31:08;16.40;99.90
9810;DHT22;4944;52.514;13.192;2022-09-02T06:33:35;16.40;99.90
9810;DHT22;4944;52.514;13.192;2022-09-02T06:36:06;16.50;99.90
9810;DHT22;4944;52.514;13.192;2022-09-02T06:38:36;16.50;99.90
9810;DHT22;4944;52.514;13.192;2022-09-02T06:41:06;16.50;99.90
9810;DHT22;4944;52.514;13.192;2022-09-02T06:43:33;16.60;99.90
9810;DHT22;4944;52.514;13.192;2022-09-02T06:46:00;16.60;99.90
9810;DHT22;4944;52.514;13.192;2022-09-02T06:48:28;16.60;99.90
9810;DHT22;4944;52.514;13.192;2022-09-02T06:50:55;16.70;99.90
9810;DHT22;4944;52.514;13.192;2022-09-02T06:53:22;16.70;99.90
9810;DHT22;4944;52.514;13.192;2022-09-02T06:55:50;16.70;99.90
9810;DHT22;4944;52.514;13.192;2022-09-02T06:58:17;16.70;99.90
9810;DHT22;4944;52.514;13.192;2022-09-02T07:00:44;16.80;99.90
9810;DHT22;4944;52.514;13.192;2022-09-02T07:03:11;16.90;99.90
9810;DHT22;4944;52.514;13.192;2022-09-02T07:06:01;16.90;99.90
9810;DHT22;4944;52.514;13.192;2022-09-02T07:08:34;16.90;99.90
9810;DHT22;4944;52.514;13.192;2022-09-02T07:11:01;17.00;99.90
9810;DHT22;4944;52.514;13.192;2022-09-02T07:13:31;17.00;99.90
9810;DHT22;4944;52.514;13.192;2022-09-02T07:15:58;17.10;99.90
9810;DHT22;4944;52.514;13.192;2022-09-02T07:18:25;17.20;99.90
9810;DHT22;4944;52.514;13.192;2022-09-02T07:20:52;17.20;99.90
9810;DHT22;4944;52.514;13.192;2022-09-02T07:23:21;17.20;99.90
9810;DHT22;4944;52.514;13.192;2022-09-02T07:25:48;17.20;99.90
9810;DHT22;4944;52.514;13.192;2022-09-02T07:28:15;17.30;99.90
9810;DHT22;4944;52.514;13.192;2022-09-02T07:30:42;17.30;99.90
9810;DHT22;4944;52.514;13.192;2022-09-02T07:33:09;17.40;99.90
9810;DHT22;4944;52.514;13.192;2022-09-02T07:35:39;17.50;99.90
9810;DHT22;4944;52.514;13.192;2022-09-02T07:38:06;17.60;99.90
9810;DHT22;4944;52.514;13.192;2022-09-02T07:40:35;17.70;99.90
9810;DHT22;4944;52.514;13.192;2022-09-02T07:43:02;17.80;99.90
9810;DHT22;4944;52.514;13.192;2022-09-02T07:45:30;17.90;99.90
9810;DHT22;4944;52.514;13.192;2022-09-02T07:47:58;17.90;99.90
9810;DHT22;4944;52.514;13.192;2022-09-02T07:50:26;18.00;99.90
9810;DHT22;4944;52.514;13.192;2022-09-02T07:52:53;18.00;99.90
9810;DHT22;4944;52.514;13.192;2022-09-02T07:55:21;18.00;99.90
9810;DHT22;4944;52.514;13.192;2022-09-02T07:57:50;18.00;99.90
9810;DHT22;4944;52.514;13.192;2022-09-02T08:00:19;18.10;99.90
9810;DHT22;4944;52.514;13.192;2022-09-02T08:02:48;18.10;99.90
9810;DHT22;4944;52.514;13.192;2022-09-02T08:05:14;18.20;99.90
9810;DHT22;4944;52.514;13.192;2022-09-02T08:07:41;18.20;99.90
9810;DHT22;4944;52.514;13.192;2022-09-02T08:10:09;18.30;99.90
9810;DHT22;4944;52.514;13.192;2022-09-02T08:12:38;18.30;99.90
9810;DHT22;4944;52.514;13.192;2022-09-02T08:15:07;18.30;99.90
9810;DHT22;4944;52.514;13.192;2022-09-02T08:17:34;18.40;99.90
9810;DHT22;4944;52.514;13.192;2022-09-02T08:20:02;18.50;99.90
9810;DHT22;4944;52.514;13.192;2022-09-02T08:22:32;18.60;99.90
9810;DHT22;4944;52.514;13.192;2022-09-02T08:24:58;18.60;99.90
9810;DHT22;4944;52.514;13.192;2022-09-02T08:27:25;18.70;99.90
9810;DHT22;4944;52.514;13.192;2022-09-02T08:29:52;18.80;99.90
9810;DHT22;4944;52.514;13.192;2022-09-02T08:32:20;18.90;99.90
9810;DHT22;4944;52.514;13.192;2022-09-02T08:34:47;18.90;99.90
9810;DHT22;4944;52.514;13.192;2022-09-02T08:37:14;19.00;99.90
9810;DHT22;4944;52.514;13.192;2022-09-02T08:39:41;19.00;99.90
9810;DHT22;4944;52.514;13.192;2022-09-02T08:42:12;19.00;99.90
9810;DHT22;4944;52.514;13.192;2022-09-02T08:44:44;19.00;99.90
9810;DHT22;4944;52.514;13.192;2022-09-02T08:47:15;19.10;99.90
9810;DHT22;4944;52.514;13.192;2022-09-02T08:49:46;19.10;99.90
9810;DHT22;4944;52.514;13.192;2022-09-02T08:52:20;19.20;99.90
9810;DHT22;4944;52.514;13.192;2022-09-02T08:54:52;19.30;99.90
9810;DHT22;4944;52.514;13.192;2022-09-02T08:57:19;19.40;99.90
9810;DHT22;4944;52.514;13.192;2022-09-02T08:59:50;19.40;99.90
9810;DHT22;4944;52.514;13.192;2022-09-02T09:02:22;19.50;99.90
9810;DHT22;4944;52.514;13.192;2022-09-02T09:05:09;19.60;99.90
9810;DHT22;4944;52.514;13.192;2022-09-02T09:07:50;19.60;99.90
9810;DHT22;4944;52.514;13.192;2022-09-02T09:10:24;19.60;99.90
9810;DHT22;4944;52.514;13.192;2022-09-02T09:13:08;19.70;99.90
9810;DHT22;4944;52.514;13.192;2022-09-02T09:15:46;19.80;99.90
9810;DHT22;4944;52.514;13.192;2022-09-02T09:18:18;19.80;99.90
9810;DHT22;4944;52.514;13.192;2022-09-02T09:20:47;20.00;99.90
9810;DHT22;4944;52.514;13.192;2022-09-02T09:23:21;20.10;99.90
9810;DHT22;4944;52.514;13.192;2022-09-02T09:25:54;20.20;99.90
9810;DHT22;4944;52.514;13.192;2022-09-02T09:28:22;20.30;99.90
9810;DHT22;4944;52.514;13.192;2022-09-02T09:30:49;20.30;99.90
9810;DHT22;4944;52.514;13.192;2022-09-02T09:33:17;20.40;99.90
9810;DHT22;4944;52.514;13.192;2022-09-02T09:35:50;20.50;99.90
9810;DHT22;4944;52.514;13.192;2022-09-02T09:38:28;20.50;99.90
9810;DHT22;4944;52.514;13.192;2022-09-02T09:41:18;20.60;99.90
9810;DHT22;4944;52.514;13.192;2022-09-02T09:43:46;20.60;99.90
9810;DHT22;4944;52.514;13.192;2022-09-02T09:46:24;20.60;99.90
9810;DHT22;4944;52.514;13.192;2022-09-02T09:48:52;20.50;99.90
9810;DHT22;4944;52.514;13.192;2022-09-02T09:51:20;20.60;99.90
9810;DHT22;4944;52.514;13.192;2022-09-02T09:53:47;20.60;99.90
9810;DHT22;4944;52.514;13.192;2022-09-02T09:56:26;20.60;99.90
9810;DHT22;4944;52.514;13.192;2022-09-02T09:58:54;20.60;99.90
9810;DHT22;4944;52.514;13.192;2022-09-02T10:01:23;20.60;99.90
9810;DHT22;4944;52.514;13.192;2022-09-02T10:03:53;20.70;99.90
9810;DHT22;4944;52.514;13.192;2022-09-02T10:06:24;20.70;99.90
9810;DHT22;4944;52.514;13.192;2022-09-02T10:09:03;20.70;99.90
9810;DHT22;4944;52.514;13.192;2022-09-02T10:11:32;20.60;99.90
9810;DHT22;4944;52.514;13.192;2022-09-02T10:14:00;20.50;99.90
9810;DHT22;4944;52.514;13.192;2022-09-02T10:16:37;20.50;99.90
9810;DHT22;4944;52.514;13.192;2022-09-02T10:19:13;20.50;99.90
9810;DHT22;4944;52.514;13.192;2022-09-02T10:22:05;20.50;99.90
9810;DHT22;4944;52.514;13.192;2022-09-02T10:24:50;20.50;99.90
9810;DHT22;4944;52.514;13.192;2022-09-02T10:27:26;20.50;99.90
9810;DHT22;4944;52.514;13.192;2022-09-02T10:30:01;20.70;99.90
9810;DHT22;4944;52.514;13.192;2022-09-02T10:32:56;20.90;99.90
9810;DHT22;4944;52.514;13.192;2022-09-02T10:35:34;21.20;99.90
9810;DHT22;4944;52.514;13.192;2022-09-02T10:38:11;21.30;99.10
9810;DHT22;4944;52.514;13.192;2022-09-02T10:40:44;21.60;99.00
9810;DHT22;4944;52.514;13.192;2022-09-02T10:43:26;21.90;99.90
9810;DHT22;4944;52.514;13.192;2022-09-02T10:45:59;22.10;99.60
9810;DHT22;4944;52.514;13.192;2022-09-02T10:48:39;22.10;99.50
9810;DHT22;4944;52.514;13.192;2022-09-02T10:51:13;22.00;99.40
9810;DHT22;4944;52.514;13.192;2022-09-02T10:53:55;21.90;99.20
9810;DHT22;4944;52.514;13.192;2022-09-02T10:56:25;21.80;99.20
9810;DHT22;4944;52.514;13.192;2022-09-02T10:58:58;21.60;99.20
9810;DHT22;4944;52.514;13.192;2022-09-02T11:01:30;21.50;99.10
9810;DHT22;4944;52.514;13.192;2022-09-02T11:04:04;21.40;99.10
9810;DHT22;4944;52.514;13.192;2022-09-02T11:06:36;21.30;99.30
9810;DHT22;4944;52.514;13.192;2022-09-02T11:09:10;21.30;99.50
9810;DHT22;4944;52.514;13.192;2022-09-02T11:11:40;21.30;99.60
9810;DHT22;4944;52.514;13.192;2022-09-02T11:14:15;21.40;99.40
9810;DHT22;4944;52.514;13.192;2022-09-02T11:16:46;21.40;99.40
9810;DHT22;4944;52.514;13.192;2022-09-02T11:19:19;21.50;99.60
9810;DHT22;4944;52.514;13.192;2022-09-02T11:21:52;21.60;99.40
9810;DHT22;4944;52.514;13.192;2022-09-02T11:24:27;21.70;99.00
9810;DHT22;4944;52.514;13.192;2022-09-02T11:27:02;21.70;99.20
9810;DHT22;4944;52.514;13.192;2022-09-02T11:29:36;21.60;98.90
9810;DHT22;4944;52.514;13.192;2022-09-02T11:32:12;21.60;98.90
9810;DHT22;4944;52.514;13.192;2022-09-02T11:34:45;21.70;98.90
9810;DHT22;4944;52.514;13.192;2022-09-02T11:37:22;21.90;98.20
9810;DHT22;4944;52.514;13.192;2022-09-02T11:39:55;22.20;97.50
9810;DHT22;4944;52.514;13.192;2022-09-02T11:42:43;22.60;97.10
9810;DHT22;4944;52.514;13.192;2022-09-02T11:45:34;22.70;96.80
9810;DHT22;4944;52.514;13.192;2022-09-02T11:54:13;23.40;95.10
9810;DHT22;4944;52.514;13.192;2022-09-02T11:56:44;23.80;95.90
9810;DHT22;4944;52.514;13.192;2022-09-02T11:59:19;24.00;95.20
9810;DHT22;4944;52.514;13.192;2022-09-02T12:01:48;24.00;95.00
9810;DHT22;4944;52.514;13.192;2022-09-02T12:04:20;23.80;94.70
9810;DHT22;4944;52.514;13.192;2022-09-02T12:07:23;23.60;94.70
9810;DHT22;4944;52.514;13.192;2022-09-02T12:09:52;23.40;94.40
9810;DHT22;4944;52.514;13.192;2022-09-02T12:13:01;23.20;94.20
9810;DHT22;4944;52.514;13.192;2022-09-02T12:15:30;23.10;94.30
9810;DHT22;4944;52.514;13.192;2022-09-02T12:18:24;22.90;94.60
9810;DHT22;4944;52.514;13.192;2022-09-02T12:21:10;22.80;95.10
9810;DHT22;4944;52.514;13.192;2022-09-02T12:24:07;22.70;95.20
9810;DHT22;4944;52.514;13.192;2022-09-02T12:27:04;22.60;95.60
9810;DHT22;4944;52.514;13.192;2022-09-02T12:29:33;22.60;96.40
9810;DHT22;4944;52.514;13.192;2022-09-02T12:32:00;22.60;96.40
9810;DHT22;4944;52.514;13.192;2022-09-02T12:34:55;22.60;95.70
9810;DHT22;4944;52.514;13.192;2022-09-02T12:37:53;22.70;94.40
9810;DHT22;4944;52.514;13.192;2022-09-02T12:40:29;23.00;94.90
9810;DHT22;4944;52.514;13.192;2022-09-02T12:43:00;23.30;95.10
9810;DHT22;4944;52.514;13.192;2022-09-02T12:45:30;23.40;93.90
9810;DHT22;4944;52.514;13.192;2022-09-02T12:48:00;23.60;93.40
9810;DHT22;4944;52.514;13.192;2022-09-02T12:50:50;23.50;93.70
9810;DHT22;4944;52.514;13.192;2022-09-02T12:53:28;23.30;93.80
9810;DHT22;4944;52.514;13.192;2022-09-02T12:55:59;23.20;94.30
9810;DHT22;4944;52.514;13.192;2022-09-02T12:58:33;23.10;94.60
9810;DHT22;4944;52.514;13.192;2022-09-02T13:01:08;23.10;94.90
9810;DHT22;4944;52.514;13.192;2022-09-02T13:04:04;23.00;94.90
9810;DHT22;4944;52.514;13.192;2022-09-02T13:06:50;23.20;95.40
9810;DHT22;4944;52.514;13.192;2022-09-02T13:12:36;24.00;94.30
9810;DHT22;4944;52.514;13.192;2022-09-02T13:15:29;24.30;94.60
9810;DHT22;4944;52.514;13.192;2022-09-02T13:18:32;24.50;93.40
9810;DHT22;4944;52.514;13.192;2022-09-02T13:21:26;24.50;92.20
9810;DHT22;4944;52.514;13.192;2022-09-02T13:24:31;24.30;92.30
9810;DHT22;4944;52.514;13.192;2022-09-02T13:27:40;24.00;92.60
9810;DHT22;4944;52.514;13.192;2022-09-02T13:30:17;23.80;93.80
9810;DHT22;4944;52.514;13.192;2022-09-02T13:32:55;23.80;93.50
9810;DHT22;4944;52.514;13.192;2022-09-02T13:35:26;23.60;92.70
9810;DHT22;4944;52.514;13.192;2022-09-02T13:37:54;23.40;93.60
9810;DHT22;4944;52.514;13.192;2022-09-02T13:40:25;23.30;93.60
9810;DHT22;4944;52.514;13.192;2022-09-02T13:42:54;23.10;93.30
9810;DHT22;4944;52.514;13.192;2022-09-02T13:45:23;23.00;94.00
9810;DHT22;4944;52.514;13.192;2022-09-02T13:47:52;23.00;93.50
9810;DHT22;4944;52.514;13.192;2022-09-02T13:50:21;23.10;94.00
9810;DHT22;4944;52.514;13.192;2022-09-02T13:52:52;23.30;94.30
9810;DHT22;4944;52.514;13.192;2022-09-02T13:55:20;23.70;93.70
9810;DHT22;4944;52.514;13.192;2022-09-02T13:57:54;24.10;93.10
9810;DHT22;4944;52.514;13.192;2022-09-02T14:00:29;24.40;92.40
9810;DHT22;4944;52.514;13.192;2022-09-02T14:02:59;24.40;92.10
9810;DHT22;4944;52.514;13.192;2022-09-02T14:05:27;24.30;92.90
9810;DHT22;4944;52.514;13.192;2022-09-02T14:07:58;24.10;92.20
9810;DHT22;4944;52.514;13.192;2022-09-02T14:10:27;24.00;92.60
9810;DHT22;4944;52.514;13.192;2022-09-02T14:12:56;24.10;92.30
9810;DHT22;4944;52.514;13.192;2022-09-02T14:15:25;24.20;92.20
9810;DHT22;4944;52.514;13.192;2022-09-02T14:18:12;24.40;91.50
9810;DHT22;4944;52.514;13.192;2022-09-02T14:20:53;24.40;91.70
9810;DHT22;4944;52.514;13.192;2022-09-02T14:23:22;24.50;90.80
9810;DHT22;4944;52.514;13.192;2022-09-02T14:25:51;24.60;91.70
9810;DHT22;4944;52.514;13.192;2022-09-02T14:28:20;24.80;91.70
9810;DHT22;4944;52.514;13.192;2022-09-02T14:30:59;25.00;91.60
9810;DHT22;4944;52.514;13.192;2022-09-02T14:33:37;25.20;90.80
9810;DHT22;4944;52.514;13.192;2022-09-02T14:36:10;25.40;90.20
9810;DHT22;4944;52.514;13.192;2022-09-02T14:38:51;25.60;90.20
9810;DHT22;4944;52.514;13.192;2022-09-02T14:41:21;25.80;90.60
9810;DHT22;4944;52.514;13.192;2022-09-02T14:43:50;25.90;90.30
9810;DHT22;4944;52.514;13.192;2022-09-02T14:46:26;25.90;90.30
9810;DHT22;4944;52.514;13.192;2022-09-02T14:48:58;25.80;90.10
9810;DHT22;4944;52.514;13.192;2022-09-02T14:51:32;25.70;90.80
9810;DHT22;4944;52.514;13.192;2022-09-02T14:54:01;25.40;91.30
9810;DHT22;4944;52.514;13.192;2022-09-02T14:56:46;25.00;91.10
9810;DHT22;4944;52.514;13.192;2022-09-02T14:59:13;24.70;91.60
9810;DHT22;4944;52.514;13.192;2022-09-02T15:01:41;24.50;91.10
9810;DHT22;4944;52.514;13.192;2022-09-02T15:04:11;24.20;91.60
9810;DHT22;4944;52.514;13.192;2022-09-02T15:06:38;24.00;91.90
9810;DHT22;4944;52.514;13.192;2022-09-02T15:09:06;23.80;91.70
9810;DHT22;4944;52.514;13.192;2022-09-02T15:11:34;23.80;91.90
9810;DHT22;4944;52.514;13.192;2022-09-02T15:14:01;23.70;92.30
9810;DHT22;4944;52.514;13.192;2022-09-02T15:16:28;23.60;92.40
9810;DHT22;4944;52.514;13.192;2022-09-02T15:18:55;23.70;92.60
9810;DHT22;4944;52.514;13.192;2022-09-02T15:21:22;23.80;91.90
9810;DHT22;4944;52.514;13.192;2022-09-02T15:23:48;24.20;91.70
9810;DHT22;4944;52.514;13.192;2022-09-02T15:26:17;24.40;90.90
9810;DHT22;4944;52.514;13.192;2022-09-02T15:28:43;24.60;90.90
9810;DHT22;4944;52.514;13.192;2022-09-02T15:31:10;24.60;90.40
9810;DHT22;4944;52.514;13.192;2022-09-02T15:33:38;24.40;90.70
9810;DHT22;4944;52.514;13.192;2022-09-02T15:36:07;24.10;90.80
9810;DHT22;4944;52.514;13.192;2022-09-02T15:38:34;24.10;91.00
9810;DHT22;4944;52.514;13.192;2022-09-02T15:41:13;24.20;91.30
9810;DHT22;4944;52.514;13.192;2022-09-02T15:43:41;24.30;91.00
9810;DHT22;4944;52.514;13.192;2022-09-02T15:46:21;24.50;90.40
9810;DHT22;4944;52.514;13.192;2022-09-02T15:48:48;24.60;89.60
9810;DHT22;4944;52.514;13.192;2022-09-02T15:51:17;24.80;90.10
9810;DHT22;4944;52.514;13.192;2022-09-02T15:53:45;24.90;90.30
9810;DHT22;4944;52.514;13.192;2022-09-02T15:56:18;25.00;90.10
9810;DHT22;4944;52.514;13.192;2022-09-02T15:58:46;25.20;89.70
9810;DHT22;4944;52.514;13.192;2022-09-02T16:01:13;25.30;88.60
9810;DHT22;4944;52.514;13.192;2022-09-02T16:03:41;25.30;89.30
9810;DHT22;4944;52.514;13.192;2022-09-02T16:06:07;25.30;89.20
9810;DHT22;4944;52.514;13.192;2022-09-02T16:08:35;25.30;90.00
9810;DHT22;4944;52.514;13.192;2022-09-02T16:11:06;24.90;88.30
9810;DHT22;4944;52.514;13.192;2022-09-02T16:13:34;24.70;88.20
9810;DHT22;4944;52.514;13.192;2022-09-02T16:16:08;24.40;88.60
9810;DHT22;4944;52.514;13.192;2022-09-02T16:18:36;24.10;89.50